Time;durP1;ratioP1;P1;durP2;ratioP2;P2;SDS_P1;SDS_P2;PMS_P1;PMS_P2;Temp;Humidity;BMP_temperature;BMP_pressure;BME280_temperature;BME280_humidity;BME280_pressure;Samples;Min_cycle;Max_cycle;Signal;HPM_P1;HPM_P2
2022/02/12 00:00:04;;;;;;;;;;;;;;;-3.10;100.00;97385.34;1034761;28;19960;-68
2022/02/12 00:00:34;;;;;;;;;;;;;;;-3.11;100.00;97388.84;1035084;28;20028;-68
2022/02/12 00:01:04;;;;;;;;;;;;;;;-3.12;100.00;97391.53;1034782;28;19921;-67
2022/02/12 00:01:38;;;;;;;;;;;;;;;-3.14;100.00;97383.19;1034846;28;19952;-68
2022/02/12 00:02:08;;;;;;;;;;;;;;;-3.16;100.00;97378.16;1036164;28;19917;-68
2022/02/12 00:02:39;;;;;;;;;;;;;;;-3.11;100.00;97382.91;1034887;28;19921;-68
2022/02/12 00:03:09;;;;;;;;;;;;;;;-3.14;100.00;97378.88;1035039;28;20000;-67
2022/02/12 00:03:39;;;;;;;;;;;;;;;-3.13;100.00;97377.09;1030440;28;20791;-67
2022/02/12 00:04:10;;;;;;;;;;;;;;;-3.13;100.00;97379.66;1026916;28;19922;-68
2022/02/12 00:04:40;;;;;;;;;;;;;;;-3.10;100.00;97385.34;1027199;28;19924;-67
2022/02/12 00:05:11;;;;;;;;;;;;;;;-3.11;100.00;97378.59;1030872;28;19914;-68
2022/02/12 00:05:42;;;;;;;;;;;;;;;-3.15;100.00;97377.25;1030773;28;19922;-68
2022/02/12 00:06:13;;;;;;;;;;;;;;;-3.12;100.00;97381.28;1031105;28;20351;-68
2022/02/12 00:06:43;;;;;;;;;;;;;;;-3.12;100.00;97376.97;1031098;28;19914;-68
2022/02/12 00:07:13;;;;;;;;;;;;;;;-3.13;100.00;97374.53;1030891;28;19964;-67
2022/02/12 00:07:44;;;;;;;;;;;;;;;-3.16;100.00;97375.59;1035296;28;19996;-68
2022/02/12 00:08:14;;;;;;;;;;;;;;;-3.15;100.00;97377.25;1030775;28;20382;-68
2022/02/12 00:08:44;;;;;;;;;;;;;;;-3.10;100.00;97375.06;1031115;28;19937;-67
2022/02/12 00:09:15;;;;;;;;;;;;;;;-3.05;100.00;97379.81;1030957;28;19929;-68
2022/02/12 00:09:45;;;;;;;;;;;;;;;-2.99;100.00;97375.88;1034774;28;19921;-67
2022/02/12 00:10:15;;;;;;;;;;;;;;;-3.02;100.00;97371.81;1035130;28;20367;-67
2022/02/12 00:10:46;;;;;;;;;;;;;;;-3.28;100.00;97335.66;1034785;28;19952;-67
2022/02/12 00:11:17;;;;;;;;;;;;;;;-3.08;100.00;97375.75;1030858;28;19913;-68
2022/02/12 00:11:47;;;;;;;;;;;;;;;-3.06;100.00;97377.38;1023203;28;19926;-67
2022/02/12 00:12:17;;;;;;;;;;;;;;;-3.02;100.00;97371.00;1018552;29;19926;-68
2022/02/12 00:12:48;;;;;;;;;;;;;;;-3.03;100.00;97370.19;1019001;29;19915;-68
2022/02/12 00:13:18;;;;;;;;;;;;;;;-3.06;100.00;97377.38;1019060;29;20012;-68
2022/02/12 00:13:48;;;;;;;;;;;;;;;-3.10;100.00;97374.25;1022005;28;20009;-67
2022/02/12 00:14:18;;;;;;;;;;;;;;;-3.11;100.00;97373.47;1026793;28;19965;-67
2022/02/12 00:14:49;;;;;;;;;;;;;;;-3.12;100.00;97379.53;1030845;28;19922;-67
2022/02/12 00:15:19;;;;;;;;;;;;;;;-3.12;100.00;97371.84;1030861;28;20423;-67
2022/02/12 00:15:50;;;;;;;;;;;;;;;-3.12;100.00;97382.13;1034734;28;19917;-68
2022/02/12 00:16:20;;;;;;;;;;;;;;;-3.15;100.00;97377.25;1026624;28;19992;-68
2022/02/12 00:16:50;;;;;;;;;;;;;;;-3.17;100.00;97381.69;1018991;29;19911;-67
2022/02/12 00:17:21;;;;;;;;;;;;;;;-3.19;100.00;97381.00;1015393;29;19911;-67
2022/02/12 00:17:51;;;;;;;;;;;;;;;-3.24;100.00;97372.91;1022839;28;20385;-71
2022/02/12 00:18:25;;;;;;;;;;;;;;;-3.25;100.00;97381.56;1020099;28;19922;-67
2022/02/12 00:18:55;;;;;;;;;;;;;;;-3.24;100.00;97377.25;1027187;28;19934;-67
2022/02/12 00:19:25;;;;;;;;;;;;;;;-3.28;100.00;97375.91;1030791;28;20712;-71
2022/02/12 00:19:56;;;;;;;;;;;;;;;-3.30;100.00;97376.03;1031768;28;19964;-67
2022/02/12 00:20:26;;;;;;;;;;;;;;;-3.34;100.00;97374.69;1026771;28;19973;-68
2022/02/12 00:20:56;;;;;;;;;;;;;;;-3.36;100.00;97374.00;1026940;28;19910;-67
2022/02/12 00:21:27;;;;;;;;;;;;;;;-3.38;100.00;97373.34;1026953;28;19911;-67
2022/02/12 00:21:57;;;;;;;;;;;;;;;-3.41;100.00;97369.28;1027231;28;19942;-67
2022/02/12 00:22:28;;;;;;;;;;;;;;;-3.43;100.00;97371.16;1034885;28;20382;-68
2022/02/12 00:22:58;;;;;;;;;;;;;;;-3.44;100.00;97372.09;1034801;28;19914;-68
2022/02/12 00:23:28;;;;;;;;;;;;;;;-3.47;100.00;97371.56;1030251;28;19945;-67
2022/02/12 00:24:00;;;;;;;;;;;;;;;-3.51;100.00;97368.47;1030661;28;19933;-67
2022/02/12 00:24:30;;;;;;;;;;;;;;;-3.52;100.00;97363.44;1034861;28;19922;-69
2022/02/12 00:25:01;;;;;;;;;;;;;;;-3.55;100.00;97364.53;1026681;28;20535;-67
2022/02/12 00:25:31;;;;;;;;;;;;;;;-3.57;100.00;97367.22;1030869;28;19921;-67
2022/02/12 00:26:01;;;;;;;;;;;;;;;-3.60;100.00;97364.94;1030709;28;19926;-68
2022/02/12 00:26:32;;;;;;;;;;;;;;;-3.64;100.00;97375.59;1031044;28;20561;-67
2022/02/12 00:27:02;;;;;;;;;;;;;;;-3.65;100.00;97368.84;1030611;28;20358;-68
2022/02/12 00:27:32;;;;;;;;;;;;;;;-3.68;100.00;97371.69;1026955;28;19922;-68
2022/02/12 00:28:03;;;;;;;;;;;;;;;-3.71;100.00;97370.19;1030781;28;19922;-67
2022/02/12 00:28:33;;;;;;;;;;;;;;;-3.71;100.00;97375.31;1030808;28;19952;-67
2022/02/12 00:29:04;;;;;;;;;;;;;;;-3.70;100.00;97371.00;1030680;28;20421;-68
2022/02/12 00:29:34;;;;;;;;;;;;;;;-3.70;100.00;97369.22;1035027;28;20024;-67
2022/02/12 00:30:05;;;;;;;;;;;;;;;-3.72;100.00;97371.13;1026573;28;20347;-67
2022/02/12 00:30:35;;;;;;;;;;;;;;;-3.74;100.00;97367.06;1026994;28;20454;-67
2022/02/12 00:31:05;;;;;;;;;;;;;;;-3.75;100.00;97363.72;1026801;28;20476;-68
2022/02/12 00:31:36;;;;;;;;;;;;;;;-3.75;100.00;97363.72;1023761;28;20291;-68
2022/02/12 00:32:07;;;;;;;;;;;;;;;-3.75;100.00;97363.72;1026530;28;19918;-68
2022/02/12 00:32:37;;;;;;;;;;;;;;;-3.73;100.00;97366.94;1025842;28;20431;-67
2022/02/12 00:33:08;;;;;;;;;;;;;;;-3.78;100.00;97358.84;1031274;28;20430;-68
2022/02/12 00:33:38;;;;;;;;;;;;;;;-3.80;100.00;97360.72;1031253;28;19948;-68
2022/02/12 00:34:08;;;;;;;;;;;;;;;-3.81;100.00;97359.91;1027947;28;19946;-68
2022/02/12 00:34:39;;;;;;;;;;;;;;;-3.77;100.00;97355.31;1035798;28;19929;-67
2022/02/12 00:35:09;;;;;;;;;;;;;;;-3.82;100.00;97350.59;1031351;28;19922;-68
2022/02/12 00:35:39;;;;;;;;;;;;;;;-3.82;100.00;97353.16;1031563;28;19956;-67
2022/02/12 00:36:10;;;;;;;;;;;;;;;-3.85;100.00;97350.88;1031705;28;19925;-67
2022/02/12 00:36:40;;;;;;;;;;;;;;;-3.86;100.00;97349.22;1027565;28;19957;-68
2022/02/12 00:37:10;;;;;;;;;;;;;;;-3.87;100.00;97351.94;1027861;28;19926;-68
2022/02/12 00:37:41;;;;;;;;;;;;;;;-3.91;100.00;97350.59;1031591;28;19929;-67
2022/02/12 00:38:11;;;;;;;;;;;;;;;-3.92;100.00;97346.41;1031599;28;20145;-67
2022/02/12 00:38:43;;;;;;;;;;;;;;;-4.15;100.00;97320.19;1027638;28;19926;-68
2022/02/12 00:39:13;;;;;;;;;;;;;;;-3.97;100.00;97344.22;1031416;28;19945;-67
2022/02/12 00:39:46;;;;;;;;;;;;;;;-3.99;100.00;97345.28;1027446;28;19953;-67
2022/02/12 00:40:16;;;;;;;;;;;;;;;-3.99;100.00;97350.41;1028676;28;19922;-67
2022/02/12 00:40:47;;;;;;;;;;;;;;;-3.96;100.00;97345.03;1035663;28;19921;-67
2022/02/12 00:41:17;;;;;;;;;;;;;;;-3.93;100.00;97350.69;1035681;28;19926;-67
2022/02/12 00:41:47;;;;;;;;;;;;;;;-3.91;100.00;97353.16;1031609;28;19973;-67
2022/02/12 00:42:18;;;;;;;;;;;;;;;-3.89;100.00;97356.38;1031791;28;19922;-68
2022/02/12 00:42:49;;;;;;;;;;;;;;;-3.88;100.00;97356.25;1031651;28;19925;-67
2022/02/12 00:43:19;;;;;;;;;;;;;;;-3.87;100.00;97357.88;1031228;28;20009;-68
2022/02/12 00:43:49;;;;;;;;;;;;;;;-3.85;100.00;97355.19;1026984;28;20024;-67
2022/02/12 00:44:23;;;;;;;;;;;;;;;-3.86;100.00;97350.97;1031692;28;20494;-68
2022/02/12 00:44:53;;;;;;;;;;;;;;;-3.86;100.00;97356.09;1031197;28;19928;-68
2022/02/12 00:45:23;;;;;;;;;;;;;;;-3.87;100.00;97357.06;1031931;28;20107;-67
2022/02/12 00:45:54;;;;;;;;;;;;;;;-3.85;100.00;97356.00;1035837;28;20526;-68
2022/02/12 00:46:24;;;;;;;;;;;;;;;-3.87;100.00;97351.94;1035737;28;20339;-68
2022/02/12 00:46:55;;;;;;;;;;;;;;;-3.84;100.00;97351.66;1035687;28;19940;-67
2022/02/12 00:47:28;;;;;;;;;;;;;;;-3.83;100.00;97350.72;1031594;28;19922;-67
2022/02/12 00:47:58;;;;;;;;;;;;;;;-3.83;100.00;97346.41;1031480;28;20271;-67
2022/02/12 00:48:29;;;;;;;;;;;;;;;-3.82;100.00;97344.66;1028121;28;20296;-68
2022/02/12 00:48:59;;;;;;;;;;;;;;;-3.84;100.00;97349.91;1032100;28;19914;-67
2022/02/12 00:49:29;;;;;;;;;;;;;;;-3.84;100.00;97344.78;1035780;28;19925;-67
2022/02/12 00:50:00;;;;;;;;;;;;;;;-3.84;100.00;97352.47;1035636;28;19913;-68
2022/02/12 00:50:30;;;;;;;;;;;;;;;-3.88;100.00;97342.63;1035675;28;19918;-68
2022/02/12 00:51:00;;;;;;;;;;;;;;;-3.87;100.00;97341.69;1035644;28;19910;-68
2022/02/12 00:51:31;;;;;;;;;;;;;;;-3.85;100.00;97348.31;1027442;28;19918;-68
2022/02/12 00:52:01;;;;;;;;;;;;;;;-3.91;100.00;97348.81;1027204;28;20012;-68
2022/02/12 00:52:32;;;;;;;;;;;;;;;-3.93;100.00;97344.75;1019980;29;19917;-67
2022/02/12 00:53:02;;;;;;;;;;;;;;;-3.90;100.00;97345.31;1023462;28;20355;-67
2022/02/12 00:53:32;;;;;;;;;;;;;;;-3.88;100.00;97350.31;1031103;28;20379;-68
2022/02/12 00:54:05;;;;;;;;;;;;;;;-3.91;100.00;97348.81;1027350;28;19985;-67
2022/02/12 00:54:37;;;;;;;;;;;;;;;-3.92;100.00;97343.84;1023874;28;20277;-67
2022/02/12 00:55:07;;;;;;;;;;;;;;;-3.92;100.00;97351.53;1023549;29;19915;-67
2022/02/12 00:55:38;;;;;;;;;;;;;;;-3.91;100.00;97350.59;1018171;29;19914;-67
2022/02/12 00:56:08;;;;;;;;;;;;;;;-3.92;100.00;97351.53;1023703;28;19973;-68
2022/02/12 00:56:38;;;;;;;;;;;;;;;-3.93;100.00;97349.88;1031812;28;19914;-68
2022/02/12 00:57:09;;;;;;;;;;;;;;;-3.93;100.00;97357.59;1033724;28;19913;-67
2022/02/12 00:57:39;;;;;;;;;;;;;;;-3.94;100.00;97348.28;1039810;28;19995;-67
2022/02/12 00:58:09;;;;;;;;;;;;;;;-3.99;100.00;97351.25;1038695;28;19913;-67
2022/02/12 00:58:43;;;;;;;;;;;;;;;-3.99;100.00;97345.28;1035571;28;19965;-67
2022/02/12 00:59:13;;;;;;;;;;;;;;;-4.04;100.00;97338.00;1031392;28;20005;-67
2022/02/12 00:59:43;;;;;;;;;;;;;;;-4.07;100.00;97333.94;1031551;28;19918;-67
2022/02/12 01:00:14;;;;;;;;;;;;;;;-4.09;100.00;97343.53;1027686;28;19987;-67
2022/02/12 01:00:45;;;;;;;;;;;;;;;-4.09;100.00;97335.84;1031676;28;19918;-67
2022/02/12 01:01:15;;;;;;;;;;;;;;;-4.05;100.00;97332.06;1027270;28;19918;-67
2022/02/12 01:01:46;;;;;;;;;;;;;;;-4.09;100.00;97328.16;1023334;29;19910;-67
2022/02/12 01:02:16;;;;;;;;;;;;;;;-4.13;100.00;97328.53;1025477;28;20026;-67
2022/02/12 01:02:47;;;;;;;;;;;;;;;-4.16;100.00;97324.47;1023503;28;19922;-67
2022/02/12 01:03:17;;;;;;;;;;;;;;;-4.16;100.00;97327.03;1029467;28;19961;-67
2022/02/12 01:03:47;;;;;;;;;;;;;;;-4.20;100.00;97330.81;1030613;28;19914;-67
2022/02/12 01:04:18;;;;;;;;;;;;;;;-4.20;100.00;97332.56;1031329;28;19928;-67
2022/02/12 01:04:48;;;;;;;;;;;;;;;-4.17;100.00;97330.53;1035721;28;20407;-67
2022/02/12 01:05:18;;;;;;;;;;;;;;;-4.17;100.00;97327.97;1035531;28;19922;-68
2022/02/12 01:05:49;;;;;;;;;;;;;;;-4.17;100.00;97325.41;1035336;28;19921;-66
2022/02/12 01:06:19;;;;;;;;;;;;;;;-4.15;100.00;97326.09;1035522;28;20255;-67
2022/02/12 01:06:49;;;;;;;;;;;;;;;-4.12;100.00;97328.41;1035607;28;20509;-67
2022/02/12 01:07:20;;;;;;;;;;;;;;;-4.10;100.00;97325.69;1031324;28;20564;-67
2022/02/12 01:07:51;;;;;;;;;;;;;;;-4.13;100.00;97324.22;1027516;28;19922;-68
2022/02/12 01:08:21;;;;;;;;;;;;;;;-4.14;100.00;97330.28;1019384;29;19925;-68
2022/02/12 01:08:51;;;;;;;;;;;;;;;-4.15;100.00;97330.44;1019614;29;19938;-68
2022/02/12 01:09:21;;;;;;;;;;;;;;;-4.13;100.00;97328.53;1027387;28;19914;-67
2022/02/12 01:09:52;;;;;;;;;;;;;;;-4.12;100.00;97325.84;1027432;28;20006;-67
2022/02/12 01:10:22;;;;;;;;;;;;;;;-4.12;100.00;97325.03;1031452;28;19922;-67
2022/02/12 01:10:52;;;;;;;;;;;;;;;-4.14;100.00;97317.47;1031226;28;19922;-67
2022/02/12 01:11:23;;;;;;;;;;;;;;;-4.17;100.00;97327.16;1035393;28;20389;-67
2022/02/12 01:11:53;;;;;;;;;;;;;;;-4.17;100.00;97325.41;1035753;28;19917;-67
2022/02/12 01:12:23;;;;;;;;;;;;;;;-4.18;100.00;97330.69;1035113;28;20012;-67
2022/02/12 01:12:54;;;;;;;;;;;;;;;-4.13;100.00;97326.78;1035584;28;19924;-67
2022/02/12 01:13:24;;;;;;;;;;;;;;;-4.12;100.00;97327.59;1030771;28;19928;-67
2022/02/12 01:13:55;;;;;;;;;;;;;;;-4.11;100.00;97324.91;1027016;28;20001;-68
2022/02/12 01:14:25;;;;;;;;;;;;;;;-4.11;100.00;97332.59;1031503;28;19928;-68
2022/02/12 01:14:56;;;;;;;;;;;;;;;-4.12;100.00;97328.41;1031361;28;20382;-67
2022/02/12 01:15:26;;;;;;;;;;;;;;;-4.11;100.00;97326.66;1035620;28;19925;-68
2022/02/12 01:15:56;;;;;;;;;;;;;;;-4.13;100.00;97328.53;1035496;28;19960;-66
2022/02/12 01:16:29;;;;;;;;;;;;;;;-4.10;100.00;97328.25;1035626;28;19976;-67
2022/02/12 01:16:59;;;;;;;;;;;;;;;-4.14;100.00;97332.84;1035602;28;20646;-66
2022/02/12 01:17:30;;;;;;;;;;;;;;;-4.13;100.00;97337.03;1035425;28;20493;-68
2022/02/12 01:18:01;;;;;;;;;;;;;;;-4.14;100.00;97322.59;1023913;28;20451;-67
2022/02/12 01:18:34;;;;;;;;;;;;;;;-4.09;100.00;97335.84;1027595;28;19937;-67
2022/02/12 01:19:04;;;;;;;;;;;;;;;-4.08;100.00;97332.31;1027062;28;19949;-67
2022/02/12 01:19:34;;;;;;;;;;;;;;;-4.13;100.00;97329.34;1028285;28;19922;-67
2022/02/12 01:20:06;;;;;;;;;;;;;;;-4.17;100.00;97333.09;1035491;28;20036;-67
2022/02/12 01:20:36;;;;;;;;;;;;;;;-4.18;100.00;97331.50;1031631;28;19957;-67
2022/02/12 01:21:06;;;;;;;;;;;;;;;-4.20;100.00;97333.34;1035374;28;19999;-67
2022/02/12 01:21:37;;;;;;;;;;;;;;;-4.20;100.00;97333.34;1035679;28;19910;-67
2022/02/12 01:22:07;;;;;;;;;;;;;;;-4.18;100.00;97328.94;1035339;28;19921;-67
2022/02/12 01:22:38;;;;;;;;;;;;;;;-4.19;100.00;97332.44;1039681;28;19918;-67
2022/02/12 01:23:08;;;;;;;;;;;;;;;-4.22;100.00;97330.13;1039411;28;20068;-67
2022/02/12 01:23:38;;;;;;;;;;;;;;;-4.27;100.00;97327.13;1038990;28;19923;-65
2022/02/12 01:24:09;;;;;;;;;;;;;;;-4.32;100.00;97324.16;1039504;28;20237;-67
2022/02/12 01:24:39;;;;;;;;;;;;;;;-4.33;100.00;97325.91;1039659;28;20421;-67
2022/02/12 01:25:10;;;;;;;;;;;;;;;-4.34;100.00;97328.59;1031237;28;19922;-68
2022/02/12 01:25:44;;;;;;;;;;;;;;;-4.36;100.00;97325.34;1031638;28;20539;-68
2022/02/12 01:26:14;;;;;;;;;;;;;;;-4.39;100.00;97323.03;1027219;28;19922;-67
2022/02/12 01:26:44;;;;;;;;;;;;;;;-4.40;100.00;97322.25;1028194;28;19922;-67
2022/02/12 01:27:15;;;;;;;;;;;;;;;-4.42;100.00;97321.56;1023866;28;20383;-68
2022/02/12 01:27:45;;;;;;;;;;;;;;;-4.43;100.00;97326.81;1023505;28;20392;-68
2022/02/12 01:28:15;;;;;;;;;;;;;;;-4.42;100.00;97318.22;1027709;28;19972;-68
2022/02/12 01:28:45;;;;;;;;;;;;;;;-4.41;100.00;97320.63;1023500;28;19914;-67
2022/02/12 01:29:16;;;;;;;;;;;;;;;-4.39;100.00;97323.03;1023311;28;19964;-67
2022/02/12 01:29:46;;;;;;;;;;;;;;;-4.34;100.00;97326.84;1023564;29;19963;-67
2022/02/12 01:30:17;;;;;;;;;;;;;;;-4.32;100.00;97319.03;1023388;28;19922;-68
2022/02/12 01:30:47;;;;;;;;;;;;;;;-4.31;100.00;97323.22;1019829;28;19988;-67
2022/02/12 01:31:17;;;;;;;;;;;;;;;-4.32;100.00;97324.97;1027315;28;20457;-67
2022/02/12 01:31:48;;;;;;;;;;;;;;;-4.30;100.00;97328.19;1031492;28;19918;-67
2022/02/12 01:32:18;;;;;;;;;;;;;;;-4.29;100.00;97323.91;1031374;28;20431;-67
2022/02/12 01:32:48;;;;;;;;;;;;;;;-4.28;100.00;97326.34;1037834;28;20294;-67
2022/02/12 01:33:19;;;;;;;;;;;;;;;-4.29;100.00;97321.34;1039366;28;20745;-68
2022/02/12 01:33:49;;;;;;;;;;;;;;;-4.32;100.00;97322.41;1038888;28;19944;-68
2022/02/12 01:34:19;;;;;;;;;;;;;;;-4.32;100.00;97319.84;1039322;28;19975;-68
2022/02/12 01:34:50;;;;;;;;;;;;;;;-4.34;100.00;97321.72;1035338;28;19933;-67
2022/02/12 01:35:23;;;;;;;;;;;;;;;-4.32;100.00;97319.03;1031185;28;19928;-67
2022/02/12 01:35:53;;;;;;;;;;;;;;;-4.35;100.00;97319.31;1027386;28;19925;-67
2022/02/12 01:36:23;;;;;;;;;;;;;;;-4.39;100.00;97312.78;1027786;28;19929;-68
2022/02/12 01:36:54;;;;;;;;;;;;;;;-4.42;100.00;97313.88;1031941;28;19922;-67
2022/02/12 01:37:27;;;;;;;;;;;;;;;-4.42;100.00;97315.66;1031899;28;19925;-69
2022/02/12 01:37:57;;;;;;;;;;;;;;;-4.43;100.00;97314.81;1035282;28;19917;-67
2022/02/12 01:38:29;;;;;;;;;;;;;;;-4.46;100.00;97312.53;1035314;28;19918;-68
2022/02/12 01:38:59;;;;;;;;;;;;;;;-4.46;100.00;97311.69;1035602;28;19917;-68
2022/02/12 01:39:29;;;;;;;;;;;;;;;-4.52;100.00;97308.72;1035223;28;19925;-67
2022/02/12 01:40:00;;;;;;;;;;;;;;;-4.50;100.00;97306.03;1035282;28;19956;-68
2022/02/12 01:40:32;;;;;;;;;;;;;;;-4.50;100.00;97311.94;1031402;28;19976;-67
2022/02/12 01:41:03;;;;;;;;;;;;;;;-4.53;100.00;97314.81;1027398;28;19922;-68
2022/02/12 01:41:33;;;;;;;;;;;;;;;-4.47;100.00;97310.09;1027292;28;20009;-67
2022/02/12 01:42:03;;;;;;;;;;;;;;;-4.45;100.00;97311.59;1027590;28;19984;-68
2022/02/12 01:42:34;;;;;;;;;;;;;;;-4.42;100.00;97305.41;1030912;28;19941;-67
2022/02/12 01:43:07;;;;;;;;;;;;;;;-4.43;100.00;97303.75;1030962;28;19918;-68
2022/02/12 01:43:37;;;;;;;;;;;;;;;-4.43;100.00;97309.69;1026948;28;19977;-68
2022/02/12 01:44:10;;;;;;;;;;;;;;;-4.44;100.00;97315.75;1026996;28;19942;-67
2022/02/12 01:44:40;;;;;;;;;;;;;;;-4.39;100.00;97312.78;1029643;28;20017;-67
2022/02/12 01:45:11;;;;;;;;;;;;;;;-4.37;100.00;97308.38;1032023;28;20338;-67
2022/02/12 01:45:41;;;;;;;;;;;;;;;-4.35;100.00;97309.06;1031615;28;19918;-68
2022/02/12 01:46:12;;;;;;;;;;;;;;;-4.35;100.00;97307.31;1027134;28;20002;-66
2022/02/12 01:46:42;;;;;;;;;;;;;;;-4.36;100.00;97309.97;1027374;28;19922;-67
2022/02/12 01:47:12;;;;;;;;;;;;;;;-4.35;100.00;97303.94;1027413;28;19922;-67
2022/02/12 01:47:43;;;;;;;;;;;;;;;-4.34;100.00;97308.09;1023212;28;19922;-67
2022/02/12 01:48:13;;;;;;;;;;;;;;;-4.34;100.00;97297.88;1026897;28;19932;-67
2022/02/12 01:48:44;;;;;;;;;;;;;;;-4.33;100.00;97302.84;1027586;28;19953;-67
2022/02/12 01:49:14;;;;;;;;;;;;;;;-4.31;100.00;97302.72;1031049;28;19949;-67
2022/02/12 01:49:45;;;;;;;;;;;;;;;-4.36;100.00;97304.84;1028746;28;19928;-68
2022/02/12 01:50:15;;;;;;;;;;;;;;;-4.36;100.00;97298.00;1035131;28;20352;-67
2022/02/12 01:50:47;;;;;;;;;;;;;;;-4.35;100.00;97304.75;1031292;28;19914;-67
2022/02/12 01:51:17;;;;;;;;;;;;;;;-4.39;100.00;97305.13;1023475;28;20508;-69
2022/02/12 01:51:47;;;;;;;;;;;;;;;-4.36;100.00;97304.84;1023275;28;19958;-68
2022/02/12 01:52:18;;;;;;;;;;;;;;;-4.38;100.00;97299.06;1023242;28;20027;-67
2022/02/12 01:52:48;;;;;;;;;;;;;;;-4.35;100.00;97307.31;1031723;28;19918;-68
2022/02/12 01:53:22;;;;;;;;;;;;;;;-4.36;100.00;97302.28;1031187;28;19921;-67
2022/02/12 01:53:53;;;;;;;;;;;;;;;-4.33;100.00;97305.41;1031238;28;19913;-68
2022/02/12 01:54:24;;;;;;;;;;;;;;;-4.34;100.00;97300.41;1031019;28;20534;-69
2022/02/12 01:54:57;;;;;;;;;;;;;;;-4.35;100.00;97302.19;1029262;28;19980;-67
2022/02/12 01:55:27;;;;;;;;;;;;;;;-4.33;100.00;97302.03;1029916;28;19996;-64
2022/02/12 01:55:58;;;;;;;;;;;;;;;-4.36;100.00;97307.41;1025770;28;20368;-68
2022/02/12 01:56:28;;;;;;;;;;;;;;;-4.32;100.00;97296.00;1027407;28;20497;-67
2022/02/12 01:56:59;;;;;;;;;;;;;;;-4.24;100.00;97301.25;1028146;28;19933;-66
2022/02/12 01:57:30;;;;;;;;;;;;;;;-4.07;100.00;97303.19;1031816;28;19918;-68
2022/02/12 01:58:00;;;;;;;;;;;;;;;-4.08;100.00;97306.69;1032237;28;19925;-67
2022/02/12 01:58:30;;;;;;;;;;;;;;;-3.98;100.00;97299.03;1031474;28;19922;-67
2022/02/12 01:59:01;;;;;;;;;;;;;;;-3.98;100.00;97300.78;1027634;28;19918;-68
2022/02/12 01:59:31;;;;;;;;;;;;;;;-3.95;100.00;97300.53;1031831;28;19917;-66
2022/02/12 02:00:03;;;;;;;;;;;;;;;-3.89;100.00;97294.84;1028073;28;19925;-67
2022/02/12 02:00:35;;;;;;;;;;;;;;;-3.93;100.00;97296.06;1023905;28;20472;-67
2022/02/12 02:01:08;;;;;;;;;;;;;;;-3.89;100.00;97295.66;1028112;28;19957;-67
2022/02/12 02:01:39;;;;;;;;;;;;;;;-3.88;100.00;97291.34;1028915;28;19921;-67
2022/02/12 02:02:09;;;;;;;;;;;;;;;-3.88;100.00;97293.91;1033461;28;20343;-67
2022/02/12 02:02:39;;;;;;;;;;;;;;;-3.87;100.00;97300.66;1039989;28;19936;-67
2022/02/12 02:03:10;;;;;;;;;;;;;;;-3.80;100.00;97292.28;1032059;28;19920;-68
2022/02/12 02:03:40;;;;;;;;;;;;;;;-3.75;100.00;97291.91;1027456;28;20311;-68
2022/02/12 02:04:11;;;;;;;;;;;;;;;-3.75;100.00;97291.09;1028295;28;20426;-67
2022/02/12 02:04:48;;;;;;;;;;;;;;;-3.75;100.00;97291.09;1025094;28;19930;-66
2022/02/12 02:05:19;;;;;;;;;;;;;;;-3.76;100.00;97290.25;1033756;28;20410;-67
2022/02/12 02:05:49;;;;;;;;;;;;;;;-3.79;100.00;97290.53;1033105;28;19914;-67
2022/02/12 02:06:20;;;;;;;;;;;;;;;-3.77;100.00;97288.66;1028790;28;19914;-68
2022/02/12 02:06:50;;;;;;;;;;;;;;;-3.77;100.00;97291.22;1025275;28;20314;-67
2022/02/12 02:07:21;;;;;;;;;;;;;;;-3.75;100.00;97288.53;1024710;28;19961;-67
2022/02/12 02:07:51;;;;;;;;;;;;;;;-3.79;100.00;97287.97;1024920;28;19914;-68
2022/02/12 02:08:21;;;;;;;;;;;;;;;-3.79;100.00;97290.53;1024518;29;19911;-67
2022/02/12 02:08:52;;;;;;;;;;;;;;;-3.77;100.00;97285.28;1025284;28;19910;-66
2022/02/12 02:09:22;;;;;;;;;;;;;;;-3.76;100.00;97287.69;1028671;28;19911;-67
2022/02/12 02:09:52;;;;;;;;;;;;;;;-3.77;100.00;97280.16;1028218;28;19915;-67
2022/02/12 02:10:23;;;;;;;;;;;;;;;-3.76;100.00;97287.69;1032418;28;19910;-67
2022/02/12 02:10:56;;;;;;;;;;;;;;;-3.77;100.00;97286.09;1032049;28;19910;-68
2022/02/12 02:11:29;;;;;;;;;;;;;;;-3.77;100.00;97286.09;1028477;28;19906;-67
2022/02/12 02:12:00;;;;;;;;;;;;;;;-3.81;100.00;97287.31;1028319;28;19910;-68
2022/02/12 02:12:31;;;;;;;;;;;;;;;-3.81;100.00;97288.09;1024864;28;19989;-68
2022/02/12 02:13:01;;;;;;;;;;;;;;;-3.82;100.00;97290.81;1029358;28;19914;-67
2022/02/12 02:13:31;;;;;;;;;;;;;;;-3.87;100.00;97283.50;1031845;28;19980;-67
2022/02/12 02:14:04;;;;;;;;;;;;;;;-3.88;100.00;97292.16;1031739;28;20299;-67
2022/02/12 02:14:39;;;;;;;;;;;;;;;-3.88;100.00;97293.91;1032457;28;19960;-68
2022/02/12 02:15:09;;;;;;;;;;;;;;;-3.90;100.00;97288.91;1020073;28;19907;-70
2022/02/12 02:15:39;;;;;;;;;;;;;;;-3.94;100.00;97292.69;1024688;28;20009;-67
2022/02/12 02:16:13;;;;;;;;;;;;;;;-3.93;100.00;97293.50;1028344;28;20081;-68
2022/02/12 02:16:43;;;;;;;;;;;;;;;-4.02;100.00;97290.00;1028729;28;19918;-67
2022/02/12 02:17:18;;;;;;;;;;;;;;;-4.21;100.00;97262.56;1032195;28;19961;-67
2022/02/12 02:17:48;;;;;;;;;;;;;;;-4.06;100.00;97297.13;1032227;28;19914;-67
2022/02/12 02:18:19;;;;;;;;;;;;;;;-4.07;100.00;97295.50;1037016;28;20330;-67
2022/02/12 02:18:49;;;;;;;;;;;;;;;-4.10;100.00;97293.19;1040604;28;20016;-67
2022/02/12 02:19:19;;;;;;;;;;;;;;;-4.09;100.00;97294.00;1036044;28;19922;-66
2022/02/12 02:19:50;;;;;;;;;;;;;;;-4.10;100.00;97293.19;1036498;28;20310;-67
2022/02/12 02:20:20;;;;;;;;;;;;;;;-4.10;100.00;97289.81;1036029;28;19921;-67
2022/02/12 02:20:50;;;;;;;;;;;;;;;-4.35;100.00;97258.63;1035825;28;19956;-68
2022/02/12 02:21:22;;;;;;;;;;;;;;;-4.16;100.00;97287.78;1040196;28;19917;-68
2022/02/12 02:21:52;;;;;;;;;;;;;;;-4.13;100.00;97292.66;1031985;28;19913;-67
2022/02/12 02:22:28;;;;;;;;;;;;;;;-4.13;100.00;97295.22;1031771;28;19960;-68
2022/02/12 02:22:58;;;;;;;;;;;;;;;-4.13;100.00;97290.88;1027673;28;19922;-67
2022/02/12 02:23:29;;;;;;;;;;;;;;;-4.09;100.00;97283.75;1024726;28;19915;-68
2022/02/12 02:23:59;;;;;;;;;;;;;;;-4.09;100.00;97291.44;1027815;28;19922;-67
2022/02/12 02:24:29;;;;;;;;;;;;;;;-4.06;100.00;97288.59;1027978;28;20405;-68
2022/02/12 02:25:00;;;;;;;;;;;;;;;-4.06;100.00;97284.31;1023845;29;20403;-66
2022/02/12 02:25:30;;;;;;;;;;;;;;;-4.07;100.00;97287.81;1023941;28;19922;-69
2022/02/12 02:26:01;;;;;;;;;;;;;;;-4.07;100.00;97292.94;1027753;28;19926;-68
2022/02/12 02:26:32;;;;;;;;;;;;;;;-4.10;100.00;97293.19;1028039;28;19914;-65
2022/02/12 02:27:03;;;;;;;;;;;;;;;-4.11;100.00;97291.56;1028248;28;19914;-68
2022/02/12 02:27:33;;;;;;;;;;;;;;;-4.10;100.00;97298.31;1027623;28;19961;-67
2022/02/12 02:28:04;;;;;;;;;;;;;;;-4.11;100.00;97295.91;1028418;28;19922;-67
2022/02/12 02:28:35;;;;;;;;;;;;;;;-4.12;100.00;97292.53;1036155;28;20484;-68
2022/02/12 02:29:05;;;;;;;;;;;;;;;-4.19;100.00;97290.59;1036043;28;20399;-67
2022/02/12 02:29:38;;;;;;;;;;;;;;;-4.19;100.00;97291.44;1035879;28;19921;-68
2022/02/12 02:30:12;;;;;;;;;;;;;;;-4.22;100.00;97293.47;1031753;28;19977;-65
2022/02/12 02:30:43;;;;;;;;;;;;;;;-4.22;100.00;97289.13;1025147;28;19953;-67
2022/02/12 02:31:16;;;;;;;;;;;;;;;-4.24;100.00;97285.88;1023706;29;19922;-67
2022/02/12 02:31:46;;;;;;;;;;;;;;;-4.25;100.00;97294.53;1024830;28;19925;-67
2022/02/12 02:32:17;;;;;;;;;;;;;;;-4.32;100.00;97291.69;1028867;28;20082;-67
2022/02/12 02:32:47;;;;;;;;;;;;;;;-4.35;100.00;97291.13;1035892;28;20314;-67
2022/02/12 02:33:18;;;;;;;;;;;;;;;-4.40;100.00;97286.38;1035722;28;19957;-67
2022/02/12 02:33:48;;;;;;;;;;;;;;;-4.40;100.00;97290.69;1027231;28;19945;-67
2022/02/12 02:34:19;;;;;;;;;;;;;;;-4.40;100.00;97294.06;1019704;29;20388;-67
2022/02/12 02:34:53;;;;;;;;;;;;;;;-4.41;100.00;97283.97;1020255;29;20561;-68
2022/02/12 02:35:25;;;;;;;;;;;;;;;-4.43;100.00;97284.06;1024872;28;20005;-67
2022/02/12 02:35:55;;;;;;;;;;;;;;;-4.47;100.00;97289.59;1032319;28;19914;-67
2022/02/12 02:36:26;;;;;;;;;;;;;;;-4.43;100.00;97285.81;1039641;28;20521;-68
2022/02/12 02:36:56;;;;;;;;;;;;;;;-4.43;100.00;97288.38;1027761;28;20474;-67
2022/02/12 02:37:27;;;;;;;;;;;;;;;-4.42;100.00;97285.72;1027934;28;19922;-67